Wetterdaten: Mrz 2017
Datum Temp Feuchte Luftdruck Regen Wind Richtung Sonnenschein UV Solar Windben
01.03.2017 3,8 C 90 % 999,3 hPa 8,8 l/m 3,9 km/h S-SW 1,83 h 0,9 UV-I 139 W/m 10,9 km/h
02.03.2017 4,4 C 87 % 1009,0 hPa 7,2 l/m 14,7 km/h S-SW 1,00 h 0,6 UV-I 93 W/m 36,6 km/h
03.03.2017 5,8 C 71 % 1005,1 hPa 0,0 l/m 7,2 km/h S-SO 4,58 h 1,2 UV-I 204 W/m 12,9 km/h
04.03.2017 10,5 C 66 % 992,8 hPa 0,0 l/m 5,8 km/h S 3,08 h 1,1 UV-I 187 W/m 16,9 km/h
05.03.2017 6,4 C 80 % 998,2 hPa 2,0 l/m 13,4 km/h S 1,33 h 1,0 UV-I 152 W/m 26,1 km/h
06.03.2017 4,3 C 94 % 1001,0 hPa 5,6 l/m 0,2 km/h S-SW 1,00 h 0,8 UV-I 124 W/m 4,0 km/h
07.03.2017 4,7 C 95 % 1014,6 hPa 5,2 l/m 0,4 km/h W-NW 0,92 h 1,0 UV-I 116 W/m 6,0 km/h
08.03.2017 4,6 C 96 % 1014,3 hPa 14,4 l/m 4,4 km/h S 0,00 h 0,7 UV-I 66 W/m 8,1 km/h
09.03.2017 6,2 C 89 % 1017,4 hPa 3,2 l/m 9,0 km/h NW 1,67 h 1,1 UV-I 130 W/m 18,1 km/h
10.03.2017 4,5 C 85 % 1026,6 hPa 0,0 l/m 2,1 km/h N-NW 3,50 h 1,3 UV-I 230 W/m 6,4 km/h
11.03.2017 6,5 C 71 % 1021,9 hPa 0,0 l/m 2,5 km/h S-SO 6,58 h 1,6 UV-I 279 W/m 7,6 km/h
12.03.2017 5,3 C 70 % 1018,3 hPa 0,0 l/m 7,8 km/h SO 7,58 h 1,5 UV-I 288 W/m 18,5 km/h
13.03.2017 8,0 C 70 % 1025,6 hPa 0,0 l/m 1,0 km/h S-SO 8,33 h 1,6 UV-I 312 W/m 5,2 km/h
14.03.2017 9,4 C 79 % 1029,5 hPa 0,0 l/m 4,2 km/h W-SW 3,33 h 1,5 UV-I 221 W/m 19,3 km/h
15.03.2017 8,4 C 75 % 1029,8 hPa 0,2 l/m 0,7 km/h NW 5,58 h 1,6 UV-I 255 W/m 5,2 km/h
16.03.2017 6,3 C 80 % 1021,0 hPa 0,0 l/m 0,1 km/h S-SW 9,50 h 1,8 UV-I 328 W/m 1,2 km/h
17.03.2017 6,5 C 72 % 1011,5 hPa 0,2 l/m 4,1 km/h W-NW 1,42 h 1,1 UV-I 133 W/m 14,1 km/h
18.03.2017 6,9 C 92 % 1005,3 hPa 11,6 l/m 7,1 km/h N-NW 0,00 h 0,7 UV-I 52 W/m 16,9 km/h
19.03.2017 8,8 C 94 % 1006,0 hPa 5,2 l/m 11,6 km/h S-SW 0,00 h 0,5 UV-I 41 W/m 27,0 km/h
20.03.2017 9,2 C 92 % 1005,7 hPa 4,2 l/m 11,6 km/h S-SW 0,17 h 1,0 UV-I 86 W/m 25,3 km/h
21.03.2017 6,3 C 79 % 1009,7 hPa 1,6 l/m 0,6 km/h S-SW 2,08 h 1,2 UV-I 160 W/m 6,4 km/h
22.03.2017 5,9 C 73 % 1015,1 hPa 0,2 l/m 1,5 km/h O-SO 5,42 h 1,5 UV-I 276 W/m 7,7 km/h
23.03.2017 7,7 C 82 % 1018,8 hPa 0,0 l/m 1,7 km/h N-NO 4,92 h 1,6 UV-I 271 W/m 8,5 km/h
24.03.2017 7,1 C 75 % 1029,7 hPa 0,0 l/m 2,2 km/h N-NO 8,83 h 1,7 UV-I 360 W/m 7,6 km/h
25.03.2017 6,1 C 70 % 1027,6 hPa 0,0 l/m 2,8 km/h N-NO 9,08 h 1,9 UV-I 349 W/m 8,0 km/h
26.03.2017 7,3 C 74 % 1024,7 hPa 0,0 l/m 0,1 km/h SO 9,42 h 2,0 UV-I 371 W/m 2,0 km/h
27.03.2017 7,6 C 64 % 1023,4 hPa 0,0 l/m 3,2 km/h SO 9,83 h 2,2 UV-I 387 W/m 6,4 km/h
28.03.2017 12,3 C 60 % 1020,5 hPa 0,0 l/m 2,3 km/h W-SW 9,92 h 2,0 UV-I 374 W/m 7,7 km/h
29.03.2017 11,5 C 80 % 1023,3 hPa 0,0 l/m 3,6 km/h W-SW 3,17 h 1,2 UV-I 155 W/m 10,9 km/h
30.03.2017 14,2 C 73 % 1023,1 hPa 0,0 l/m 0,5 km/h S-SW 5,75 h 2,1 UV-I 308 W/m 2,8 km/h
31.03.2017 14,5 C 63 % 1013,3 hPa 0,0 l/m 6,1 km/h S 8,92 h 2,0 UV-I 326 W/m 9,3 km/h
Min-Datum 22.03.17 27.03.17 04.03.17 14 Tage 01.03.17 - - - - 01.03.17
Min-Zeit 06:25 16:20 20:40 - 00:05 - - - - 00:05
Minimum -2,5 C 30 % 990,8 hPa - 0,0 km/h - - - - 0,0 km/h
Max-Datum 31.03.17 08.03.17 24.03.17 08.03.17 08.03.17 - 28.03.17 30.03.17 22.03.17 02.03.17
Max-Zeit 14:55 05:25 23:40 16:15 15:00 - 18:20 12:15 12:05 10:40
Maximum 21,8 C 100 % 1031,9 hPa 14,4 l/m 30,2 km/h
S
- 9,83 h 3,7 UV-I 779 W/m 61,2 km/h
SW
Durchschnitt 7,5 C 79 % 1015,6 hPa #69,6 l/m 4,4 km/h S #138:45 h 1,4 UV-I 218 W/m 11,7 km/h

Durchschnitt Minimum Temp.3,1 C
Durchschnitt Maximum Temp.12,2 C